createdAt,value
2023-01-15T00:00:06.668Z,3.50
2023-01-15T00:00:29.447Z,3.50
2023-01-15T00:00:53.658Z,3.50
2023-01-15T00:01:21.700Z,3.50
2023-01-15T00:01:44.562Z,3.50
2023-01-15T00:02:07.311Z,3.50
2023-01-15T00:02:31.910Z,3.50
2023-01-15T00:02:55.956Z,3.50
2023-01-15T00:03:18.936Z,3.50
2023-01-15T00:03:41.633Z,3.50
2023-01-15T00:04:05.497Z,3.50
2023-01-15T00:04:28.283Z,3.50
2023-01-15T00:04:51.652Z,3.50
2023-01-15T00:05:14.489Z,3.50
2023-01-15T00:05:37.258Z,3.60
2023-01-15T00:06:03.088Z,3.50
2023-01-15T00:06:26.258Z,3.50
2023-01-15T00:06:49.256Z,3.50
2023-01-15T00:07:12.030Z,3.50
2023-01-15T00:07:34.892Z,3.50
2023-01-15T00:07:57.641Z,3.40
2023-01-15T00:08:20.558Z,3.40
2023-01-15T00:08:43.409Z,3.40
2023-01-15T00:09:06.472Z,3.40
2023-01-15T00:09:29.203Z,3.40
2023-01-15T00:09:52.490Z,3.40
2023-01-15T00:10:15.391Z,3.40
2023-01-15T00:10:38.073Z,3.40
2023-01-15T00:11:05.913Z,3.40
2023-01-15T00:11:28.766Z,3.40
2023-01-15T00:11:51.843Z,3.40
2023-01-15T00:12:15.619Z,3.40
2023-01-15T00:12:38.316Z,3.30
2023-01-15T00:13:01.097Z,3.30
2023-01-15T00:13:23.901Z,3.30
2023-01-15T00:13:46.776Z,3.30
2023-01-15T00:14:09.493Z,3.30
2023-01-15T00:14:32.315Z,3.30
2023-01-15T00:14:55.212Z,3.30
2023-01-15T00:15:18.430Z,3.30
2023-01-15T00:15:44.098Z,3.30
2023-01-15T00:16:10.692Z,3.30
2023-01-15T00:16:33.481Z,3.30
2023-01-15T00:16:56.183Z,3.30
2023-01-15T00:17:19.050Z,3.30
2023-01-15T00:17:41.857Z,3.30
2023-01-15T00:18:04.881Z,3.30
2023-01-15T00:18:27.682Z,3.40
2023-01-15T00:18:51.367Z,3.40
2023-01-15T00:19:14.737Z,3.40
2023-01-15T00:19:37.616Z,3.50
2023-01-15T00:20:00.362Z,3.40
2023-01-15T00:20:23.162Z,3.40
2023-01-15T00:20:45.934Z,3.40
2023-01-15T00:21:12.653Z,3.50
2023-01-15T00:21:35.378Z,3.50
2023-01-15T00:21:58.582Z,3.40
2023-01-15T00:22:21.291Z,3.40
2023-01-15T00:22:44.026Z,3.50
2023-01-15T00:23:06.771Z,3.50
2023-01-15T00:23:47.767Z,3.50
2023-01-15T00:24:29.068Z,3.50
2023-01-15T00:25:10.313Z,3.50
2023-01-15T00:25:52.009Z,3.50
2023-01-15T00:26:33.742Z,3.50
2023-01-15T00:27:14.872Z,3.50
2023-01-15T00:27:40.812Z,3.50
2023-01-15T00:28:03.701Z,3.50
2023-01-15T00:28:26.512Z,3.50
2023-01-15T00:28:49.500Z,3.50
2023-01-15T00:29:12.247Z,3.50
2023-01-15T00:29:34.972Z,3.50
2023-01-15T00:29:57.867Z,3.50
2023-01-15T00:30:20.745Z,3.40
2023-01-15T00:30:43.566Z,3.40
2023-01-15T00:31:08.264Z,3.40
2023-01-15T00:31:31.059Z,3.50
2023-01-15T00:31:56.892Z,3.50
2023-01-15T00:32:19.657Z,3.50
2023-01-15T00:32:42.969Z,3.50
2023-01-15T00:33:05.813Z,3.50
2023-01-15T00:33:28.858Z,3.40
2023-01-15T00:33:51.907Z,3.50
2023-01-15T00:34:14.611Z,3.50
2023-01-15T00:34:37.360Z,3.50
2023-01-15T00:35:00.106Z,3.50
2023-01-15T00:35:23.441Z,3.60
2023-01-15T00:35:46.116Z,3.60
2023-01-15T00:36:09.221Z,3.60
2023-01-15T00:36:33.155Z,3.60
2023-01-15T00:36:55.915Z,3.60
2023-01-15T00:37:21.090Z,3.60
2023-01-15T00:37:44.114Z,3.60
2023-01-15T00:38:06.892Z,3.60
2023-01-15T00:38:29.596Z,3.60
2023-01-15T00:38:52.397Z,3.60
2023-01-15T00:39:17.605Z,3.60
2023-01-15T00:39:40.359Z,3.70
2023-01-15T00:40:03.204Z,3.70
2023-01-15T00:40:25.913Z,3.70
2023-01-15T00:40:53.096Z,3.70
2023-01-15T00:41:15.923Z,3.70
2023-01-15T00:41:38.725Z,3.70
2023-01-15T00:42:01.476Z,3.60
2023-01-15T00:42:24.181Z,3.60
2023-01-15T00:42:53.735Z,3.70
2023-01-15T00:43:17.378Z,3.60
2023-01-15T00:43:40.062Z,3.70
2023-01-15T00:44:02.787Z,3.70
2023-01-15T00:44:25.586Z,3.70
2023-01-15T00:44:48.345Z,3.80
2023-01-15T00:45:11.312Z,3.70
2023-01-15T00:45:34.377Z,3.80
2023-01-15T00:45:57.101Z,3.80
2023-01-15T00:46:21.333Z,3.80
2023-01-15T00:46:44.159Z,3.80
2023-01-15T00:47:09.059Z,3.80
2023-01-15T00:47:31.822Z,3.90
2023-01-15T00:47:54.846Z,3.80
2023-01-15T00:48:17.730Z,3.90
2023-01-15T00:48:40.861Z,3.90
2023-01-15T00:49:03.633Z,3.90
2023-01-15T00:49:26.322Z,3.80
2023-01-15T00:49:50.622Z,3.80
2023-01-15T00:50:15.044Z,3.90
2023-01-15T00:50:37.767Z,3.80
2023-01-15T00:51:00.533Z,3.90
2023-01-15T00:51:23.240Z,3.80
2023-01-15T00:51:46.089Z,3.90
2023-01-15T00:52:09.133Z,3.80
2023-01-15T00:52:31.885Z,3.80
2023-01-15T00:52:54.798Z,3.80
2023-01-15T00:53:17.580Z,4.00
2023-01-15T00:53:40.423Z,3.80
2023-01-15T00:54:03.133Z,3.80
2023-01-15T00:54:25.830Z,3.80
2023-01-15T00:54:48.817Z,3.80
2023-01-15T00:55:11.530Z,3.80
2023-01-15T00:55:36.473Z,3.90
2023-01-15T00:55:59.223Z,3.90
2023-01-15T00:56:22.063Z,3.90
2023-01-15T00:56:44.807Z,3.90
2023-01-15T00:57:11.559Z,3.90
2023-01-15T00:57:34.251Z,3.90
2023-01-15T00:57:56.937Z,3.90
2023-01-15T00:58:22.287Z,3.90
2023-01-15T00:58:46.621Z,3.80
2023-01-15T00:59:09.287Z,3.80
2023-01-15T00:59:31.996Z,3.80
2023-01-15T00:59:54.724Z,3.90
2023-01-15T01:00:18.085Z,3.80
2023-01-15T01:00:40.882Z,3.80
2023-01-15T01:01:03.709Z,3.80
2023-01-15T01:01:28.039Z,3.90
2023-01-15T01:01:50.985Z,3.80
2023-01-15T01:02:14.168Z,3.80
2023-01-15T01:02:36.992Z,3.80
2023-01-15T01:03:01.978Z,3.80
2023-01-15T01:03:24.649Z,3.90
2023-01-15T01:03:53.017Z,3.90
2023-01-15T01:04:15.971Z,3.90
2023-01-15T01:04:38.658Z,3.90
2023-01-15T01:05:01.402Z,3.90
2023-01-15T01:05:24.104Z,3.80
2023-01-15T01:05:46.933Z,3.90
2023-01-15T01:06:10.362Z,3.90
2023-01-15T01:06:33.181Z,3.80
2023-01-15T01:06:55.945Z,3.90
2023-01-15T01:07:21.133Z,3.90
2023-01-15T01:07:43.897Z,3.90
2023-01-15T01:08:06.661Z,3.90
2023-01-15T01:08:29.421Z,3.90
2023-01-15T01:08:52.156Z,3.90
2023-01-15T01:09:15.050Z,3.90
2023-01-15T01:09:37.779Z,3.90
2023-01-15T01:10:00.465Z,3.90
2023-01-15T01:10:23.241Z,3.90
2023-01-15T01:10:46.012Z,3.90
2023-01-15T01:11:10.499Z,3.90
2023-01-15T01:11:34.727Z,3.90
2023-01-15T01:11:57.451Z,3.90
2023-01-15T01:12:21.398Z,3.90
2023-01-15T01:12:44.193Z,3.90
2023-01-15T01:13:06.982Z,3.90
2023-01-15T01:13:29.777Z,3.90
2023-01-15T01:13:52.462Z,3.90
2023-01-15T01:14:15.218Z,3.90
2023-01-15T01:14:37.970Z,3.80
2023-01-15T01:15:00.704Z,3.90
2023-01-15T01:15:25.868Z,3.90
2023-01-15T01:15:48.648Z,3.80
2023-01-15T01:16:30.508Z,3.90
2023-01-15T01:16:53.437Z,3.80
2023-01-15T01:17:16.207Z,3.80
2023-01-15T01:17:41.338Z,3.80
2023-01-15T01:18:04.320Z,3.80
2023-01-15T01:18:29.283Z,3.80
2023-01-15T01:18:52.150Z,3.80
2023-01-15T01:19:15.856Z,3.80
2023-01-15T01:19:38.651Z,3.80
2023-01-15T01:20:01.542Z,3.90
2023-01-15T01:20:24.237Z,3.90
2023-01-15T01:20:46.973Z,3.80
2023-01-15T01:21:09.692Z,3.90
2023-01-15T01:21:32.327Z,3.90
2023-01-15T01:21:55.047Z,3.90
2023-01-15T01:22:20.327Z,3.90
2023-01-15T01:22:43.105Z,3.90
2023-01-15T01:23:08.325Z,3.90
2023-01-15T01:23:33.021Z,3.90
2023-01-15T01:23:55.959Z,3.90
2023-01-15T01:24:19.805Z,3.90
2023-01-15T01:24:42.562Z,3.90
2023-01-15T01:25:06.092Z,3.90
2023-01-15T01:25:28.808Z,3.90
2023-01-15T01:25:51.522Z,3.90
2023-01-15T01:26:14.278Z,3.90
2023-01-15T01:26:36.974Z,3.90
2023-01-15T01:26:59.712Z,3.90
2023-01-15T01:27:22.409Z,3.90
2023-01-15T01:27:45.192Z,4.00
2023-01-15T01:28:07.916Z,3.90
2023-01-15T01:28:30.657Z,3.90
2023-01-15T01:28:53.626Z,4.00
2023-01-15T01:29:17.155Z,3.90
2023-01-15T01:29:39.999Z,4.00
2023-01-15T01:30:04.941Z,4.00
2023-01-15T01:30:27.743Z,4.00
2023-01-15T01:30:50.406Z,4.00
2023-01-15T01:31:15.420Z,4.00
2023-01-15T01:31:39.917Z,4.00
2023-01-15T01:32:02.679Z,4.00
2023-01-15T01:32:25.432Z,4.00
2023-01-15T01:32:48.166Z,4.00
2023-01-15T01:33:10.946Z,4.00
2023-01-15T01:33:33.656Z,4.00
2023-01-15T01:34:00.909Z,4.00
2023-01-15T01:34:23.677Z,4.00
2023-01-15T01:34:46.310Z,4.00
2023-01-15T01:35:09.667Z,4.00
2023-01-15T01:35:32.381Z,4.10
2023-01-15T01:35:55.217Z,4.10
2023-01-15T01:36:18.084Z,4.00
2023-01-15T01:36:43.757Z,4.10
2023-01-15T01:37:06.574Z,4.00
2023-01-15T01:37:29.232Z,4.00
2023-01-15T01:37:52.014Z,4.00
2023-01-15T01:38:14.815Z,4.10
2023-01-15T01:38:37.477Z,4.10
2023-01-15T01:39:00.332Z,4.10
2023-01-15T01:39:23.100Z,4.10
2023-01-15T01:39:49.037Z,4.10
2023-01-15T01:40:12.556Z,4.10
2023-01-15T01:40:35.350Z,4.10
2023-01-15T01:40:58.088Z,4.10
2023-01-15T01:41:20.757Z,4.10
2023-01-15T01:41:43.579Z,4.10
2023-01-15T01:42:12.431Z,4.10
2023-01-15T01:42:35.111Z,4.10
2023-01-15T01:42:57.858Z,4.10
2023-01-15T01:43:21.931Z,4.10
2023-01-15T01:43:56.585Z,4.10
2023-01-15T01:44:56.178Z,4.10
2023-01-15T01:45:25.087Z,4.10
2023-01-15T01:45:48.215Z,4.20
2023-01-15T01:46:11.111Z,4.20
2023-01-15T01:46:35.223Z,4.20
2023-01-15T01:47:00.034Z,4.20
2023-01-15T01:47:24.000Z,4.20
2023-01-15T01:47:46.762Z,4.20
2023-01-15T01:48:09.469Z,4.20
2023-01-15T01:48:33.798Z,4.20
2023-01-15T01:48:57.941Z,4.20
2023-01-15T01:49:21.999Z,4.30
2023-01-15T01:49:44.864Z,4.30
2023-01-15T01:50:10.054Z,4.30
2023-01-15T01:50:32.801Z,4.30
2023-01-15T01:50:58.035Z,4.30
2023-01-15T01:51:21.351Z,4.30
2023-01-15T01:51:49.057Z,4.30
2023-01-15T01:52:16.714Z,4.30
2023-01-15T01:52:42.642Z,4.30
2023-01-15T01:53:07.537Z,4.20
2023-01-15T01:53:30.711Z,4.20
2023-01-15T01:53:53.507Z,4.20
2023-01-15T01:54:17.647Z,4.20
2023-01-15T01:54:40.406Z,4.20
2023-01-15T01:55:03.091Z,4.20
2023-01-15T01:55:28.447Z,4.20
2023-01-15T01:55:51.391Z,4.10
2023-01-15T01:56:17.803Z,4.10
2023-01-15T01:56:40.621Z,4.10
2023-01-15T01:57:03.347Z,4.10
2023-01-15T01:57:26.241Z,4.00
2023-01-15T01:57:51.309Z,4.00
2023-01-15T01:58:14.124Z,4.00
2023-01-15T01:58:36.923Z,4.00
2023-01-15T01:58:59.685Z,4.00
2023-01-15T01:59:22.471Z,4.00
2023-01-15T01:59:45.272Z,4.00
2023-01-15T02:00:11.700Z,4.00
2023-01-15T02:00:34.479Z,4.00
2023-01-15T02:00:57.451Z,4.10
2023-01-15T02:01:20.619Z,4.10
2023-01-15T02:01:43.527Z,4.10
2023-01-15T02:02:08.136Z,4.10
2023-01-15T02:02:30.987Z,4.00
2023-01-15T02:02:53.801Z,4.00
2023-01-15T02:03:19.199Z,4.00
2023-01-15T02:03:41.981Z,3.90
2023-01-15T02:04:06.242Z,3.90
2023-01-15T02:04:29.044Z,3.90
2023-01-15T02:04:52.909Z,3.90
2023-01-15T02:05:20.611Z,3.90
2023-01-15T02:05:46.637Z,3.90
2023-01-15T02:06:10.740Z,4.00
2023-01-15T02:06:33.445Z,4.00
2023-01-15T02:06:56.166Z,4.00
2023-01-15T02:07:18.901Z,3.90
2023-01-15T02:07:41.778Z,4.00
2023-01-15T02:08:05.129Z,3.90
2023-01-15T02:08:27.979Z,3.90
2023-01-15T02:08:50.657Z,3.90
2023-01-15T02:09:13.388Z,3.90
2023-01-15T02:09:36.149Z,3.90
2023-01-15T02:09:58.984Z,3.90
2023-01-15T02:10:21.776Z,3.90
2023-01-15T02:10:45.121Z,3.90
2023-01-15T02:11:08.000Z,3.90
2023-01-15T02:11:33.246Z,3.90
2023-01-15T02:11:57.807Z,3.90
2023-01-15T02:12:23.218Z,3.90
2023-01-15T02:12:49.685Z,3.90
2023-01-15T02:13:14.881Z,3.90
2023-01-15T02:13:39.111Z,3.90
2023-01-15T02:14:05.046Z,4.00
2023-01-15T02:14:30.725Z,4.00
2023-01-15T02:15:00.205Z,4.00
2023-01-15T02:15:27.046Z,4.00
2023-01-15T02:15:53.292Z,4.00
2023-01-15T02:16:17.081Z,4.00
2023-01-15T02:16:42.383Z,4.00
2023-01-15T02:17:08.197Z,4.00
2023-01-15T02:17:33.711Z,4.00
2023-01-15T02:18:01.480Z,4.00
2023-01-15T02:18:26.880Z,3.90
2023-01-15T02:18:51.923Z,4.00
2023-01-15T02:19:19.612Z,4.00
2023-01-15T02:19:52.142Z,4.00
2023-01-15T02:20:23.268Z,4.00
2023-01-15T02:20:48.669Z,4.00
2023-01-15T02:21:16.161Z,4.00
2023-01-15T02:21:45.339Z,4.00
2023-01-15T02:22:14.411Z,4.10
2023-01-15T02:22:41.702Z,4.10
2023-01-15T02:23:12.747Z,4.10
2023-01-15T02:24:03.331Z,4.10
2023-01-15T02:24:31.437Z,4.10
2023-01-15T02:24:59.940Z,4.10
2023-01-15T02:25:25.018Z,4.00
2023-01-15T02:25:57.491Z,4.00
2023-01-15T02:26:43.938Z,4.00
2023-01-15T02:27:16.408Z,4.00
2023-01-15T02:27:39.206Z,3.90
2023-01-15T02:28:04.602Z,4.00
2023-01-15T02:28:27.973Z,3.90
2023-01-15T02:28:51.576Z,3.90
2023-01-15T02:29:17.960Z,3.90
2023-01-15T02:29:45.687Z,3.90
2023-01-15T02:30:10.898Z,3.90
2023-01-15T02:30:35.669Z,3.90
2023-01-15T02:31:00.966Z,3.90
2023-01-15T02:31:26.149Z,3.90
2023-01-15T02:31:51.471Z,3.90
2023-01-15T02:32:17.362Z,3.90
2023-01-15T02:32:41.406Z,3.90
2023-01-15T02:33:06.415Z,3.90
2023-01-15T02:33:31.893Z,3.90
2023-01-15T02:33:56.901Z,3.90
2023-01-15T02:34:21.447Z,4.00
2023-01-15T02:34:48.215Z,4.00
2023-01-15T02:35:13.075Z,3.90
2023-01-15T02:35:38.449Z,3.90
2023-01-15T02:36:01.306Z,4.00
2023-01-15T02:36:24.627Z,4.00
2023-01-15T02:36:49.026Z,4.00
2023-01-15T02:37:14.626Z,4.00
2023-01-15T02:37:39.215Z,4.00
2023-01-15T02:38:03.205Z,4.00
2023-01-15T02:38:25.943Z,4.00
2023-01-15T02:38:49.200Z,4.00
2023-01-15T02:39:13.351Z,4.00
2023-01-15T02:39:36.441Z,4.00
2023-01-15T02:39:59.976Z,4.00
2023-01-15T02:40:23.427Z,4.00
2023-01-15T02:40:46.236Z,4.00
2023-01-15T02:41:16.412Z,4.00
2023-01-15T02:41:41.601Z,4.00
2023-01-15T02:42:05.179Z,3.90
2023-01-15T02:42:29.564Z,3.90
2023-01-15T02:42:52.330Z,3.90
2023-01-15T02:43:15.115Z,3.80
2023-01-15T02:43:37.891Z,3.80
2023-01-15T02:44:00.615Z,3.80
2023-01-15T02:44:23.377Z,3.80
2023-01-15T02:44:48.953Z,3.80
2023-01-15T02:45:11.697Z,3.80
2023-01-15T02:45:37.060Z,3.80
2023-01-15T02:45:59.924Z,3.80
2023-01-15T02:46:25.021Z,3.80
2023-01-15T02:46:47.819Z,3.80
2023-01-15T02:47:11.209Z,3.80
2023-01-15T02:47:35.541Z,3.70
2023-01-15T02:47:59.410Z,3.70
2023-01-15T02:48:25.121Z,3.70
2023-01-15T02:48:52.494Z,3.70
2023-01-15T02:49:17.188Z,3.70
2023-01-15T02:49:39.977Z,3.70
2023-01-15T02:50:06.155Z,3.70
2023-01-15T02:50:31.370Z,3.70
2023-01-15T02:50:56.016Z,3.70
2023-01-15T02:51:21.322Z,3.70
2023-01-15T02:51:46.231Z,3.80
2023-01-15T02:52:10.415Z,3.80
2023-01-15T02:52:35.291Z,3.80
2023-01-15T02:53:00.108Z,3.80
2023-01-15T02:53:24.051Z,3.80
2023-01-15T02:53:48.501Z,3.80
2023-01-15T02:54:12.495Z,3.80
2023-01-15T02:54:37.751Z,3.80
2023-01-15T02:55:01.280Z,3.70
2023-01-15T02:55:26.410Z,3.70
2023-01-15T02:55:51.064Z,3.70
2023-01-15T02:56:15.063Z,3.70
2023-01-15T02:56:37.901Z,3.70
2023-01-15T02:57:00.727Z,3.70
2023-01-15T02:57:23.689Z,3.60
2023-01-15T02:57:48.326Z,3.60
2023-01-15T02:58:12.470Z,3.50
2023-01-15T02:58:36.733Z,3.50
2023-01-15T02:59:01.449Z,3.50
2023-01-15T02:59:25.423Z,3.50
2023-01-15T02:59:48.750Z,3.50
2023-01-15T03:00:13.834Z,3.50
2023-01-15T03:00:37.854Z,3.40
2023-01-15T03:01:01.523Z,3.40
2023-01-15T03:01:28.418Z,3.40
2023-01-15T03:01:53.839Z,3.40
2023-01-15T03:02:20.749Z,3.40
2023-01-15T03:02:48.491Z,3.40
2023-01-15T03:03:13.929Z,3.40
2023-01-15T03:03:40.202Z,3.40
2023-01-15T03:04:05.812Z,3.50
2023-01-15T03:04:31.387Z,3.40
2023-01-15T03:04:56.321Z,3.40
2023-01-15T03:05:21.020Z,3.40
2023-01-15T03:05:46.085Z,3.40
2023-01-15T03:06:11.104Z,3.40
2023-01-15T03:06:36.164Z,3.40
2023-01-15T03:07:05.159Z,3.50
2023-01-15T03:07:31.251Z,3.40
2023-01-15T03:07:55.206Z,3.40
2023-01-15T03:08:17.931Z,3.40
2023-01-15T03:08:40.759Z,3.40
2023-01-15T03:09:03.572Z,3.40
2023-01-15T03:09:26.400Z,3.40
2023-01-15T03:09:51.650Z,3.30
2023-01-15T03:10:14.495Z,3.30
2023-01-15T03:10:41.602Z,3.30
2023-01-15T03:11:06.901Z,3.30
2023-01-15T03:11:29.635Z,3.30
2023-01-15T03:11:55.836Z,3.30
2023-01-15T03:12:22.723Z,3.30
2023-01-15T03:13:03.471Z,3.30
2023-01-15T03:13:30.295Z,3.30
2023-01-15T03:13:56.925Z,3.30
2023-01-15T03:14:20.837Z,3.30
2023-01-15T03:14:49.925Z,3.20
2023-01-15T03:15:33.849Z,3.20
2023-01-15T03:16:17.953Z,3.20
2023-01-15T03:16:42.309Z,3.20
2023-01-15T03:17:09.488Z,3.10
2023-01-15T03:17:35.445Z,3.10
2023-01-15T03:17:58.199Z,3.10
2023-01-15T03:18:20.982Z,3.00
2023-01-15T03:18:46.080Z,3.00
2023-01-15T03:19:14.171Z,3.00
2023-01-15T03:19:39.766Z,3.00
2023-01-15T03:20:09.317Z,3.00
2023-01-15T03:20:32.006Z,3.00
2023-01-15T03:20:58.854Z,2.90
2023-01-15T03:21:26.712Z,3.00
2023-01-15T03:21:51.455Z,3.00
2023-01-15T03:22:18.268Z,2.90
2023-01-15T03:22:42.888Z,3.00
2023-01-15T03:23:08.981Z,3.00
2023-01-15T03:23:31.755Z,3.00
2023-01-15T03:23:55.208Z,3.00
2023-01-15T03:24:24.347Z,3.00
2023-01-15T03:24:49.301Z,3.00
2023-01-15T03:25:13.341Z,3.00
2023-01-15T03:25:38.250Z,3.00
2023-01-15T03:26:00.997Z,3.00
2023-01-15T03:26:23.695Z,2.90
2023-01-15T03:26:46.476Z,2.90
2023-01-15T03:27:09.291Z,3.00
2023-01-15T03:27:32.030Z,3.00
2023-01-15T03:27:58.487Z,3.00
2023-01-15T03:28:22.881Z,2.90
2023-01-15T03:28:45.930Z,2.90
2023-01-15T03:29:08.598Z,2.90
2023-01-15T03:29:33.190Z,3.00
2023-01-15T03:30:01.224Z,2.90
2023-01-15T03:30:24.037Z,3.00
2023-01-15T03:30:47.035Z,3.00
2023-01-15T03:31:09.829Z,3.00
2023-01-15T03:31:35.751Z,3.00
2023-01-15T03:31:59.534Z,2.90
2023-01-15T03:32:22.320Z,3.00
2023-01-15T03:32:44.986Z,2.90
2023-01-15T03:33:11.614Z,2.90
2023-01-15T03:33:35.150Z,2.90
2023-01-15T03:33:57.928Z,2.90
2023-01-15T03:34:20.729Z,2.80
2023-01-15T03:34:48.488Z,2.80
2023-01-15T03:35:45.267Z,2.80
2023-01-15T03:36:09.409Z,2.80
2023-01-15T03:36:32.160Z,2.80
2023-01-15T03:36:54.894Z,2.80
2023-01-15T03:37:17.883Z,2.70
2023-01-15T03:37:40.642Z,2.70
2023-01-15T03:38:05.925Z,2.70
2023-01-15T03:38:30.030Z,2.70
2023-01-15T03:38:52.811Z,2.70
2023-01-15T03:39:17.902Z,2.70
2023-01-15T03:39:40.642Z,2.70
2023-01-15T03:40:04.566Z,2.70
2023-01-15T03:40:27.276Z,2.70
2023-01-15T03:40:54.890Z,2.70
2023-01-15T03:41:21.295Z,2.70
2023-01-15T03:41:52.405Z,2.70
2023-01-15T03:42:18.974Z,2.70
2023-01-15T03:42:47.455Z,2.60
2023-01-15T03:43:31.580Z,2.70
2023-01-15T03:44:01.029Z,2.70
2023-01-15T03:44:32.321Z,2.60
2023-01-15T03:44:58.595Z,2.70
2023-01-15T03:45:26.166Z,2.60
2023-01-15T03:45:49.362Z,2.60
2023-01-15T03:46:18.354Z,2.70
2023-01-15T03:46:51.285Z,2.60
2023-01-15T03:47:21.259Z,2.70
2023-01-15T03:47:50.323Z,2.70
2023-01-15T03:48:16.011Z,2.70
2023-01-15T03:48:42.246Z,2.70
2023-01-15T03:49:08.369Z,2.70
2023-01-15T03:49:38.084Z,2.70
2023-01-15T03:50:05.124Z,2.70
2023-01-15T03:50:32.090Z,2.70
2023-01-15T03:50:56.652Z,2.70
2023-01-15T03:51:24.247Z,2.70
2023-01-15T03:51:52.032Z,2.70
2023-01-15T03:52:17.540Z,2.70
2023-01-15T03:52:44.497Z,2.80
2023-01-15T03:53:09.648Z,2.70
2023-01-15T03:53:33.823Z,2.70
2023-01-15T03:53:57.965Z,2.70
2023-01-15T03:54:24.004Z,2.70
2023-01-15T03:54:49.490Z,2.70
2023-01-15T03:55:14.947Z,2.70
2023-01-15T03:55:40.983Z,2.70
2023-01-15T03:56:06.232Z,2.70
2023-01-15T03:56:31.727Z,2.70
2023-01-15T03:56:57.292Z,2.70
2023-01-15T03:57:26.206Z,2.70
2023-01-15T03:57:50.229Z,2.70
2023-01-15T03:58:17.508Z,2.70
2023-01-15T03:58:41.091Z,2.70
2023-01-15T03:59:05.767Z,2.80
2023-01-15T03:59:31.058Z,2.80
2023-01-15T03:59:55.209Z,2.80
2023-01-15T04:00:21.939Z,2.80
2023-01-15T04:00:46.805Z,2.80
2023-01-15T04:01:11.193Z,2.80
2023-01-15T04:01:37.587Z,2.80
2023-01-15T04:02:00.757Z,2.80
2023-01-15T04:02:23.568Z,2.80
2023-01-15T04:02:46.309Z,2.80
2023-01-15T04:03:08.982Z,2.80
2023-01-15T04:03:32.814Z,2.80
2023-01-15T04:03:56.058Z,2.80
2023-01-15T04:04:18.945Z,2.80
2023-01-15T04:04:41.907Z,2.80
2023-01-15T04:05:05.185Z,2.80
2023-01-15T04:05:27.982Z,2.80
2023-01-15T04:05:50.730Z,2.80
2023-01-15T04:06:13.480Z,2.80
2023-01-15T04:06:40.440Z,2.80
2023-01-15T04:07:04.036Z,2.80
2023-01-15T04:07:26.799Z,2.70
2023-01-15T04:07:49.626Z,2.70
2023-01-15T04:08:12.374Z,2.80
2023-01-15T04:08:38.445Z,2.70
2023-01-15T04:09:01.177Z,2.70
2023-01-15T04:09:23.981Z,2.70
2023-01-15T04:09:47.848Z,2.70
2023-01-15T04:10:11.692Z,2.70
2023-01-15T04:10:34.497Z,2.70
2023-01-15T04:10:58.091Z,2.70
2023-01-15T04:11:24.687Z,2.70
2023-01-15T04:11:47.460Z,2.80
2023-01-15T04:12:10.496Z,2.70
2023-01-15T04:12:34.421Z,2.80
2023-01-15T04:12:57.139Z,2.70
2023-01-15T04:13:23.818Z,2.70
2023-01-15T04:13:46.589Z,2.70
2023-01-15T04:14:10.080Z,2.70
2023-01-15T04:14:33.943Z,2.70
2023-01-15T04:14:58.971Z,2.70
2023-01-15T04:15:21.744Z,2.70
2023-01-15T04:15:44.509Z,2.70
2023-01-15T04:16:08.755Z,2.70
2023-01-15T04:16:32.347Z,2.70
2023-01-15T04:16:55.207Z,2.70
2023-01-15T04:17:17.922Z,2.70
2023-01-15T04:17:40.714Z,2.70
2023-01-15T04:18:05.937Z,2.70
2023-01-15T04:18:28.665Z,2.70
2023-01-15T04:18:52.559Z,2.70
2023-01-15T04:19:15.325Z,2.70
2023-01-15T04:19:38.115Z,2.70
2023-01-15T04:20:00.820Z,2.70
2023-01-15T04:20:23.826Z,2.70
2023-01-15T04:20:46.584Z,2.70
2023-01-15T04:21:09.371Z,2.70
2023-01-15T04:21:32.105Z,2.70
2023-01-15T04:21:54.788Z,2.70
2023-01-15T04:22:17.480Z,2.70
2023-01-15T04:22:42.675Z,2.70
2023-01-15T04:23:05.430Z,2.70
2023-01-15T04:23:28.088Z,2.70
2023-01-15T04:23:50.778Z,2.70
2023-01-15T04:24:15.941Z,2.80
2023-01-15T04:24:38.829Z,2.80
2023-01-15T04:25:04.616Z,2.80
2023-01-15T04:25:27.328Z,2.70
2023-01-15T04:25:52.291Z,2.70
2023-01-15T04:26:15.040Z,2.70
2023-01-15T04:26:37.812Z,2.70
2023-01-15T04:27:00.631Z,2.70
2023-01-15T04:27:23.359Z,2.70
2023-01-15T04:27:48.265Z,2.80
2023-01-15T04:28:11.067Z,2.80
2023-01-15T04:28:38.334Z,2.80
2023-01-15T04:29:01.222Z,2.80
2023-01-15T04:29:24.389Z,2.80
2023-01-15T04:29:47.191Z,2.80
2023-01-15T04:30:11.826Z,2.80
2023-01-15T04:30:34.772Z,2.80
2023-01-15T04:30:58.144Z,2.80
2023-01-15T04:31:21.030Z,2.80
2023-01-15T04:31:43.899Z,2.80
2023-01-15T04:32:06.687Z,2.80
2023-01-15T04:32:29.387Z,2.80
2023-01-15T04:32:52.085Z,2.80
2023-01-15T04:33:14.870Z,2.80
2023-01-15T04:33:39.368Z,2.80
2023-01-15T04:34:02.117Z,2.80
2023-01-15T04:34:26.087Z,2.80
2023-01-15T04:34:48.933Z,2.80
2023-01-15T04:35:11.732Z,2.70
2023-01-15T04:35:36.166Z,2.80
2023-01-15T04:36:00.165Z,2.70
2023-01-15T04:36:23.022Z,2.80
2023-01-15T04:36:48.167Z,2.70
2023-01-15T04:37:13.285Z,2.70
2023-01-15T04:37:36.139Z,2.70
2023-01-15T04:37:59.374Z,2.70
2023-01-15T04:38:22.157Z,2.70
2023-01-15T04:38:44.964Z,2.70
2023-01-15T04:39:07.919Z,2.70
2023-01-15T04:39:30.790Z,2.70
2023-01-15T04:39:53.522Z,2.70
2023-01-15T04:40:35.364Z,2.70
2023-01-15T04:41:19.944Z,2.70
2023-01-15T04:42:01.447Z,2.70
2023-01-15T04:42:42.548Z,2.70
2023-01-15T04:43:24.006Z,2.70
2023-01-15T04:44:06.743Z,2.70
2023-01-15T04:44:29.498Z,2.70
2023-01-15T04:44:52.277Z,2.80
2023-01-15T04:45:15.154Z,2.80
2023-01-15T04:45:37.825Z,2.70
2023-01-15T04:46:00.746Z,2.80
2023-01-15T04:46:23.659Z,2.80
2023-01-15T04:46:47.924Z,2.80
2023-01-15T04:47:10.867Z,2.80
2023-01-15T04:47:33.947Z,2.80
2023-01-15T04:47:56.646Z,2.80
2023-01-15T04:48:19.485Z,2.80
2023-01-15T04:48:42.254Z,2.80
2023-01-15T04:49:06.083Z,2.80
2023-01-15T04:49:28.816Z,2.80
2023-01-15T04:49:51.532Z,2.80
2023-01-15T04:50:14.285Z,2.80
2023-01-15T04:50:39.619Z,2.80
2023-01-15T04:51:04.492Z,2.80
2023-01-15T04:51:27.223Z,2.80
2023-01-15T04:51:49.932Z,2.80
2023-01-15T04:52:12.690Z,2.80
2023-01-15T04:52:37.613Z,2.70
2023-01-15T04:53:00.327Z,2.80
2023-01-15T04:53:23.040Z,2.80
2023-01-15T04:53:45.789Z,2.80
2023-01-15T04:54:08.699Z,2.70
2023-01-15T04:54:31.571Z,2.80
2023-01-15T04:54:55.964Z,2.80
2023-01-15T04:55:18.887Z,2.80
2023-01-15T04:55:41.627Z,2.80
2023-01-15T04:56:04.757Z,2.80
2023-01-15T04:56:27.501Z,2.80
2023-01-15T04:56:51.722Z,2.80
2023-01-15T04:57:14.431Z,2.80
2023-01-15T04:57:39.062Z,2.80
2023-01-15T04:58:01.800Z,2.70
2023-01-15T04:58:24.504Z,2.80
2023-01-15T04:58:48.691Z,2.80
2023-01-15T04:59:11.558Z,2.80
2023-01-15T04:59:34.355Z,2.80
2023-01-15T04:59:58.588Z,2.70
2023-01-15T05:00:23.204Z,2.80
2023-01-15T05:00:45.955Z,2.80
2023-01-15T05:01:15.203Z,2.80
2023-01-15T05:01:38.142Z,2.80
2023-01-15T05:02:06.427Z,2.90
2023-01-15T05:02:29.616Z,2.90
2023-01-15T05:02:52.704Z,2.90
2023-01-15T05:03:15.461Z,2.90
2023-01-15T05:03:38.206Z,2.80
2023-01-15T05:04:01.226Z,2.90
2023-01-15T05:04:24.021Z,2.80
2023-01-15T05:04:47.055Z,2.80
2023-01-15T05:05:10.153Z,2.80
2023-01-15T05:05:33.616Z,2.80
2023-01-15T05:05:56.302Z,2.80
2023-01-15T05:06:19.075Z,2.70
2023-01-15T05:06:41.769Z,2.70
2023-01-15T05:07:04.831Z,2.80
2023-01-15T05:07:27.506Z,2.70
2023-01-15T05:07:50.245Z,2.70
2023-01-15T05:08:13.987Z,2.70
2023-01-15T05:08:36.806Z,2.70
2023-01-15T05:08:59.595Z,2.70
2023-01-15T05:09:22.360Z,2.70
2023-01-15T05:09:45.283Z,2.70
2023-01-15T05:10:12.590Z,2.70
2023-01-15T05:10:35.589Z,2.70
2023-01-15T05:11:02.891Z,2.70
2023-01-15T05:11:25.786Z,2.70
2023-01-15T05:11:48.641Z,2.60
2023-01-15T05:12:11.398Z,2.60
2023-01-15T05:12:34.164Z,2.60
2023-01-15T05:12:56.894Z,2.60
2023-01-15T05:13:21.836Z,2.60
2023-01-15T05:13:44.566Z,2.60
2023-01-15T05:14:08.807Z,2.60
2023-01-15T05:14:31.542Z,2.70
2023-01-15T05:14:56.624Z,2.70
2023-01-15T05:15:20.427Z,2.70
2023-01-15T05:15:46.558Z,2.70
2023-01-15T05:16:13.688Z,2.70
2023-01-15T05:16:38.254Z,2.70
2023-01-15T05:17:00.997Z,2.70
2023-01-15T05:17:23.680Z,2.60
2023-01-15T05:17:46.741Z,2.60
2023-01-15T05:18:09.611Z,2.60
2023-01-15T05:18:32.351Z,2.60
2023-01-15T05:18:57.552Z,2.60
2023-01-15T05:19:20.463Z,2.60
2023-01-15T05:19:43.206Z,2.60
2023-01-15T05:20:08.813Z,2.70
2023-01-15T05:20:31.536Z,2.60
2023-01-15T05:20:54.353Z,2.60
2023-01-15T05:21:18.615Z,2.50
2023-01-15T05:21:42.482Z,2.50
2023-01-15T05:22:06.269Z,2.50
2023-01-15T05:22:28.968Z,2.50
2023-01-15T05:22:53.929Z,2.60
2023-01-15T05:23:16.752Z,2.60
2023-01-15T05:23:39.456Z,2.60
2023-01-15T05:24:03.224Z,2.50
2023-01-15T05:24:25.987Z,2.50
2023-01-15T05:24:48.755Z,2.50
2023-01-15T05:25:11.448Z,2.60
2023-01-15T05:25:34.392Z,2.60
2023-01-15T05:25:57.240Z,2.50
2023-01-15T05:26:22.778Z,2.50
2023-01-15T05:26:45.596Z,2.50
2023-01-15T05:27:08.358Z,2.50